Метеостанция


АнтоновUKKM 221600Z AUTO 33004MPS 300V360 9999 NCD 24/16 Q1013
БориспольUKBB 221600Z 34007MPS 9999 SCT040 25/18 Q1013 R88/CLRD// NOSIG
ДнепропетровскUKDD 221600Z 00000MPS CAVOK 31/14 Q1012 R08/090070 NOSIG
ДонецкNo METAR available for UKCC.
ЖуляныUKKK 221600Z 02004MPS 340V050 9999 FEW030CB BKN046 25/18 Q1013 R26/CLRD70 NOSIG
Запорожье(Мокрая)UKDE 221600Z 24002MPS 210V280 CAVOK 32/14 Q1012 R20/CLRD70 NOSIG
Ивано-ФранковскUKLI 221600Z VRB01MPS 9999 BKN036 24/17 Q1016 R28/090070 NOSIG
Кривой РогUKDR 221600Z 22002MPS 9999 SCT033 32/11 Q1011 R18/09//70 NOSIG
ЛуганскNo METAR available for UKCW.
ЛьвовUKLL 221600Z 25002MPS 190V300 9999 SCT033 25/15 Q1016 R31/CLRD// NOSIG
МариупольNo METAR available for UKCM.
НиколаевUKON 221600Z 25005MPS 210V310 9999 FEW033CB 33/10 Q1012 NOSIG
ОдессаUKOO 221600Z 19004MPS CAVOK 29/13 Q1013 R16/090060 NOSIG
РовноUKLR 221500Z 34003MPS 300V010 9999 SCT023 24/16 Q1016 NOSIG
СимферопольNo METAR available for UKFF.
УжгородUKLU 221600Z 00000MPS 9999 BKN100 29/17 Q1014 NOSIG
ХарьковUKHH 221600Z 24004MPS 9999 FEW030CB SCT040 BKN100 30/13 Q1011 R25/0///66 NOSIG
ЧеркассыNo METAR available for UKKE.
ЧерновцыUKLN 221600Z 28004MPS 210V320 CAVOK 26/16 Q1016 R33/09//70 NOSIG
Скачать:
Скачать этот файл (Metar_шпаргалка.jpg)Расшифровка METAR[ ]4799 Кб
Вся информация, которая имеется в использовании на сайте и доступная для скачивания, получена исключительно из открытых источников информации сети Интернет, всякое совпадение с данными, имеющими ограничения в доступе, случайное и не является преднамеренным.